Time;durP1;ratioP1;P1;durP2;ratioP2;P2;SDS_P1;SDS_P2;PMS_P1;PMS_P2;Temp;Humidity;BMP_temperature;BMP_pressure;BME280_temperature;BME280_humidity;BME280_pressure;Samples;Min_cycle;Max_cycle;Signal;HPM_P1;HPM_P2
2022/09/20 00:01:15;;;;;;;1.63;1.30;;;;;;;11.82;100.00;96656.91;5062753;28;20218;-73
2022/09/20 00:03:43;;;;;;;2.40;1.40;;;;;;;11.79;100.00;96665.47;5057911;28;20202;-72
2022/09/20 00:06:14;;;;;;;2.80;1.60;;;;;;;11.78;100.00;96661.94;5054322;28;20213;-73
2022/09/20 00:08:42;;;;;;;1.90;1.60;;;;;;;11.72;100.00;96663.66;5061829;28;20645;-72
2022/09/20 00:11:15;;;;;;;1.40;1.30;;;;;;;11.71;100.00;96656.59;5056764;28;20224;-72
2022/09/20 00:13:44;;;;;;;2.03;1.30;;;;;;;11.69;100.00;96664.13;5049496;28;20234;-72
2022/09/20 00:16:13;;;;;;;3.93;1.30;;;;;;;11.58;100.00;96666.75;5064925;28;20245;-72
2022/09/20 00:18:41;;;;;;;2.13;1.40;;;;;;;11.47;100.00;96660.25;5049577;28;20217;-72
2022/09/20 00:21:15;;;;;;;2.77;1.20;;;;;;;11.42;100.00;96656.56;5057070;28;20205;-72
2022/09/20 00:23:42;;;;;;;3.43;1.10;;;;;;;11.38;100.00;96658.94;5066199;28;20206;-72
2022/09/20 00:26:10;;;;;;;3.40;1.43;;;;;;;11.32;100.00;96660.63;5064907;28;20301;-72
2022/09/20 00:28:37;;;;;;;4.13;1.70;;;;;;;11.28;100.00;96647.81;5066308;28;20210;-72
2022/09/20 00:31:04;;;;;;;2.70;1.57;;;;;;;11.28;100.00;96651.34;5060047;28;20233;-73
2022/09/20 00:36:13;;;;;;;2.40;1.37;;;;;;;11.26;100.00;96647.22;5054332;28;20265;-72
2022/09/20 00:38:40;;;;;;;1.90;1.60;;;;;;;11.21;100.00;96650.63;5048350;28;20210;-72
2022/09/20 00:41:07;;;;;;;2.23;1.70;;;;;;;11.12;100.00;96651.97;5050940;28;20226;-72
2022/09/20 00:43:38;;;;;;;4.20;1.80;;;;;;;11.08;100.00;96653.47;5048696;28;20293;-72
2022/09/20 00:46:15;;;;;;;2.73;1.67;;;;;;;11.12;100.00;96654.66;5062106;28;20206;-72
2022/09/20 00:48:42;;;;;;;2.80;1.10;;;;;;;11.10;100.00;96654.06;5047570;28;20201;-72
2022/09/20 00:51:13;;;;;;;1.90;1.33;;;;;;;11.11;100.00;96650.31;5052005;28;20225;-72
2022/09/20 00:53:44;;;;;;;2.37;1.60;;;;;;;11.06;100.00;96652.84;5048537;28;20198;-73
2022/09/20 00:56:17;;;;;;;2.20;1.47;;;;;;;11.08;100.00;96644.53;5052941;28;20212;-73
2022/09/20 00:58:51;;;;;;;2.47;1.50;;;;;;;11.10;100.00;96648.66;5055703;28;20244;-72
2022/09/20 01:01:18;;;;;;;1.87;1.23;;;;;;;11.14;100.00;96644.47;5049091;28;20202;-72
2022/09/20 01:03:46;;;;;;;1.60;1.30;;;;;;;11.13;100.00;96650.91;5060359;28;20194;-74
2022/09/20 01:06:16;;;;;;;2.33;1.20;;;;;;;11.17;100.00;96645.88;5069009;28;20210;-72
2022/09/20 01:08:47;;;;;;;2.10;1.30;;;;;;;11.13;100.00;96642.81;5051832;28;20206;-72
2022/09/20 01:11:14;;;;;;;1.43;1.20;;;;;;;11.08;100.00;96642.66;5054860;28;20236;-72
2022/09/20 01:13:41;;;;;;;2.40;1.20;;;;;;;11.11;100.00;96649.50;5052742;28;20218;-72
2022/09/20 01:16:11;;;;;;;4.07;1.20;;;;;;;11.08;100.00;96644.53;5054390;28;20296;-72
2022/09/20 01:18:39;;;;;;;1.90;1.30;;;;;;;11.05;100.00;96635.00;5059733;28;20201;-72
2022/09/20 01:21:07;;;;;;;1.90;1.30;;;;;;;11.07;100.00;96637.47;5056919;28;20229;-73
2022/09/20 01:23:55;;;;;;;2.80;1.47;;;;;;;11.04;100.00;96636.06;5054085;28;20265;-71
2022/09/20 01:26:36;;;;;;;4.83;1.37;;;;;;;11.05;100.00;96635.00;5053309;28;20201;-73
2022/09/20 01:29:13;;;;;;;2.90;1.20;;;;;;;11.04;100.00;96632.53;5063420;28;20201;-73
2022/09/20 01:31:46;;;;;;;2.70;1.20;;;;;;;10.94;100.00;96639.28;5052654;28;20226;-74
2022/09/20 01:34:17;;;;;;;1.30;1.20;;;;;;;10.90;100.00;96638.06;5050285;28;20201;-72
2022/09/20 01:36:50;;;;;;;2.27;1.33;;;;;;;10.87;100.00;96637.72;5054606;28;20195;-72
2022/09/20 01:39:25;;;;;;;1.43;1.33;;;;;;;10.77;100.00;96629.31;5072414;28;20232;-74
2022/09/20 01:41:58;;;;;;;1.43;0.97;;;;;;;10.66;100.00;96636.25;5052691;28;20207;-72
2022/09/20 01:44:35;;;;;;;2.43;1.30;;;;;;;10.66;100.00;96632.72;5050126;28;20226;-72
2022/09/20 01:47:11;;;;;;;2.87;1.40;;;;;;;10.65;100.00;96633.78;5053974;28;20306;-72
2022/09/20 01:49:46;;;;;;;1.63;1.40;;;;;;;10.69;100.00;96633.13;5050022;28;20300;-72
2022/09/20 01:52:38;;;;;;;3.03;1.30;;;;;;;10.73;100.00;96625.38;5057199;28;20253;-72
2022/09/20 01:55:46;;;;;;;1.23;1.13;;;;;;;10.72;100.00;96621.84;5064061;28;20193;-72
2022/09/20 01:58:45;;;;;;;2.90;1.30;;;;;;;10.75;100.00;96615.19;5062588;28;20210;-73
2022/09/20 02:01:42;;;;;;;2.60;1.20;;;;;;;10.72;100.00;96626.47;5052258;28;20198;-73
2022/09/20 02:04:35;;;;;;;2.80;1.30;;;;;;;10.63;100.00;96625.09;5062700;28;20226;-72
2022/09/20 02:07:21;;;;;;;2.03;1.10;;;;;;;10.51;100.00;96616.91;5052793;28;20359;-72
2022/09/20 02:10:09;;;;;;;1.30;1.20;;;;;;;10.52;100.00;96630.19;5052894;28;20309;-73
2022/09/20 02:12:55;;;;;;;2.70;1.40;;;;;;;10.50;100.00;96620.66;5063837;28;20202;-72
2022/09/20 02:15:41;;;;;;;3.10;1.50;;;;;;;10.45;100.00;96624.03;5065958;28;20316;-72
2022/09/20 02:18:26;;;;;;;2.00;1.40;;;;;;;10.34;100.00;96629.31;5059534;28;20202;-72
2022/09/20 02:20:58;;;;;;;3.00;1.20;;;;;;;10.26;100.00;96624.19;5059039;28;20217;-72
2022/09/20 02:23:40;;;;;;;1.50;1.33;;;;;;;10.23;100.00;96620.06;5052078;28;20297;-72
2022/09/20 02:26:36;;;;;;;2.33;1.23;;;;;;;10.22;100.00;96621.09;5051983;28;20210;-72
2022/09/20 02:29:22;;;;;;;1.23;1.13;;;;;;;10.11;100.00;96619.13;5046474;28;20218;-74
2022/09/20 02:32:16;;;;;;;3.53;1.43;;;;;;;9.97;100.00;96623.78;5066780;28;20253;-73
2022/09/20 02:35:00;;;;;;;1.53;1.27;;;;;;;9.91;100.00;96616.56;5057460;28;20202;-72
2022/09/20 02:38:06;;;;;;;1.30;1.20;;;;;;;9.91;100.00;96618.44;5068019;28;20252;-72
2022/09/20 02:41:00;;;;;;;3.13;1.33;;;;;;;9.91;100.00;96615.75;5026020;28;20204;-72
2022/09/20 02:43:35;;;;;;;2.37;1.30;;;;;;;9.91;100.00;96621.13;5036199;28;20216;-73
2022/09/20 02:46:12;;;;;;;2.27;1.30;;;;;;;9.84;100.00;96615.81;5073353;28;20198;-73
2022/09/20 02:48:48;;;;;;;16.10;9.67;;;;;;;9.69;100.00;96626.09;5059998;28;20201;-73
2022/09/20 02:51:24;;;;;;;31.67;19.03;;;;;;;9.72;100.00;96629.16;5058754;28;20228;-72
2022/09/20 02:53:58;;;;;;;23.30;14.77;;;;;;;9.69;100.00;96626.09;5050957;28;20212;-72
2022/09/20 02:56:32;;;;;;;12.30;7.87;;;;;;;9.66;100.00;96621.94;5051927;28;20236;-71
2022/09/20 02:59:05;;;;;;;4.73;3.40;;;;;;;9.64;100.00;96625.91;5064776;28;20205;-72
2022/09/20 03:01:45;;;;;;;3.17;2.27;;;;;;;9.62;100.00;96623.41;5059643;28;20198;-72
2022/09/20 03:04:23;;;;;;;1.30;1.20;;;;;;;9.52;100.00;96627.66;5058489;28;20202;-72
2022/09/20 03:07:01;;;;;;;1.60;1.50;;;;;;;9.56;100.00;96634.25;5060735;28;20236;-72
2022/09/20 03:09:37;;;;;;;2.40;1.93;;;;;;;9.45;100.00;96633.88;5065101;28;20201;-72
2022/09/20 03:12:17;;;;;;;2.93;1.43;;;;;;;9.43;100.00;96629.78;5060967;28;20224;-72
2022/09/20 03:14:50;;;;;;;2.43;1.40;;;;;;;9.44;100.00;96634.91;5056493;28;20229;-73
2022/09/20 03:17:29;;;;;;;5.40;1.70;;;;;;;9.40;100.00;96635.59;5075281;28;20201;-73
2022/09/20 03:20:11;;;;;;;2.80;2.07;;;;;;;9.35;100.00;96638.94;5051335;28;20201;-72
2022/09/20 03:22:53;;;;;;;2.53;1.83;;;;;;;9.32;100.00;96644.75;5065132;28;20234;-72
2022/09/20 03:25:33;;;;;;;3.17;2.17;;;;;;;9.34;100.00;96647.22;5059526;28;20237;-73
2022/09/20 03:28:09;;;;;;;2.00;1.20;;;;;;;9.35;100.00;96638.09;5050439;28;20207;-72
2022/09/20 03:30:50;;;;;;;2.33;1.70;;;;;;;9.36;100.00;96635.19;5055188;28;20213;-72
2022/09/20 03:33:26;;;;;;;1.83;1.50;;;;;;;9.31;100.00;96647.66;5057429;28;20210;-73
2022/09/20 03:36:08;;;;;;;2.67;1.40;;;;;;;9.31;100.00;96653.03;5064091;28;20236;-73
2022/09/20 03:38:52;;;;;;;3.80;2.17;;;;;;;9.24;100.00;96649.56;5065322;28;20217;-73
2022/09/20 03:41:50;;;;;;;2.80;1.40;;;;;;;9.16;100.00;96649.81;5062155;28;20297;-72
2022/09/20 03:44:51;;;;;;;3.20;1.43;;;;;;;9.10;100.00;96652.28;5070581;28;20233;-73
2022/09/20 03:47:37;;;;;;;4.80;1.50;;;;;;;9.14;100.00;96659.97;5037679;28;20218;-72
2022/09/20 03:50:32;;;;;;;2.30;1.23;;;;;;;9.15;100.00;96665.13;5049680;28;20214;-73
2022/09/20 03:53:29;;;;;;;1.27;1.13;;;;;;;9.19;100.00;96666.34;5054459;28;20210;-72
2022/09/20 03:56:21;;;;;;;1.90;1.20;;;;;;;9.17;100.00;96662.22;5055421;28;20221;-72
2022/09/20 03:59:05;;;;;;;3.07;1.40;;;;;;;9.20;100.00;96662.63;5055253;28;20199;-72
2022/09/20 04:01:50;;;;;;;1.77;1.40;;;;;;;9.24;100.00;96668.41;5065757;28;20210;-72
2022/09/20 04:04:25;;;;;;;3.07;1.50;;;;;;;9.21;100.00;96660.75;5059232;28;20253;-72
2022/09/20 04:07:15;;;;;;;2.27;1.90;;;;;;;9.10;100.00;96662.25;5055890;28;20209;-71
2022/09/20 04:10:16;;;;;;;2.30;1.40;;;;;;;9.08;100.00;96665.16;5056494;28;20220;-71
2022/09/20 04:12:57;;;;;;;2.17;1.90;;;;;;;9.11;100.00;96667.41;5059613;28;20209;-73
2022/09/20 04:15:35;;;;;;;4.07;1.50;;;;;;;9.13;100.00;96666.38;5052685;28;20233;-72
2022/09/20 04:18:12;;;;;;;2.37;1.63;;;;;;;9.07;100.00;96673.47;5056528;28;20249;-71
2022/09/20 04:20:46;;;;;;;3.83;1.50;;;;;;;9.00;100.00;96673.50;5052939;28;20205;-72
2022/09/20 04:23:30;;;;;;;2.67;1.60;;;;;;;8.92;100.00;96654.88;5066595;28;20276;-72
2022/09/20 04:26:01;;;;;;;1.63;1.50;;;;;;;8.87;100.00;96661.91;5050995;28;20210;-72
2022/09/20 04:28:37;;;;;;;2.67;1.73;;;;;;;8.81;100.00;96660.91;5056957;28;20202;-71
2022/09/20 04:31:14;;;;;;;2.03;1.40;;;;;;;8.75;100.00;96659.06;5064412;28;20312;-74
2022/09/20 04:33:46;;;;;;;1.60;1.40;;;;;;;8.69;100.00;96667.97;5051618;28;20243;-72
2022/09/20 04:36:30;;;;;;;2.13;1.50;;;;;;;8.70;100.00;96666.94;5053686;28;20282;-72
2022/09/20 04:39:14;;;;;;;3.27;1.40;;;;;;;8.69;100.00;96667.97;5052455;28;20261;-72
2022/09/20 04:42:21;;;;;;;5.57;1.83;;;;;;;8.65;100.00;96674.81;5052889;28;20205;-72
2022/09/20 04:45:15;;;;;;;3.77;1.60;;;;;;;8.65;100.00;96674.81;5052062;28;20206;-73
2022/09/20 04:48:16;;;;;;;6.27;1.50;;;;;;;8.77;100.00;96672.28;5052427;28;20303;-71
2022/09/20 04:51:10;;;;;;;2.50;1.30;;;;;;;8.88;100.00;96679.72;5049747;28;20224;-72
2022/09/20 04:54:17;;;;;;;4.00;1.50;;;;;;;8.85;100.00;96677.44;5059412;28;20199;-72
2022/09/20 04:57:05;;;;;;;2.80;1.50;;;;;;;8.83;100.00;96677.69;5051923;28;20244;-73
2022/09/20 04:59:54;;;;;;;3.03;1.50;;;;;;;8.80;100.00;96667.31;5060324;28;20202;-72
2022/09/20 05:03:05;;;;;;;5.93;1.40;;;;;;;8.84;100.00;96679.34;5065375;28;20194;-73
2022/09/20 05:05:56;;;;;;;1.90;1.33;;;;;;;8.78;100.00;96679.34;5002751;28;20285;-73
2022/09/20 05:09:13;;;;;;;1.63;1.30;;;;;;;8.79;100.00;96687.22;5057627;28;20279;-72
2022/09/20 05:12:15;;;;;;;1.50;1.30;;;;;;;8.80;100.00;96682.66;5033555;28;20288;-71
2022/09/20 05:15:08;;;;;;;9.53;1.73;;;;;;;8.73;100.00;96688.06;5059780;28;20300;-72
2022/09/20 05:17:45;;;;;;;1.57;1.40;;;;;;;8.74;100.00;96689.72;5052286;28;20269;-72
2022/09/20 05:20:44;;;;;;;2.03;1.40;;;;;;;8.61;100.00;96693.25;5052991;28;20202;-72
2022/09/20 05:23:35;;;;;;;4.63;1.70;;;;;;;8.59;100.00;96687.22;5058931;28;20323;-71
2022/09/20 05:26:23;;;;;;;2.50;1.43;;;;;;;8.61;100.00;96697.78;5046619;28;20210;-71
2022/09/20 05:28:58;;;;;;;3.80;1.77;;;;;;;8.60;100.00;96698.81;5068684;28;20304;-73
2022/09/20 05:31:36;;;;;;;2.37;1.37;;;;;;;8.54;100.00;96700.50;5061750;28;20217;-72
2022/09/20 05:34:14;;;;;;;3.87;1.30;;;;;;;8.54;100.00;96711.28;5065131;28;20258;-72
2022/09/20 05:36:54;;;;;;;1.60;1.30;;;;;;;8.53;100.00;96711.47;5057337;28;20309;-72
2022/09/20 05:39:34;;;;;;;2.20;1.50;;;;;;;8.54;100.00;96713.13;5059275;28;20295;-71
2022/09/20 05:42:11;;;;;;;1.93;1.50;;;;;;;8.56;100.00;96711.06;5057881;28;20205;-72
2022/09/20 05:44:54;;;;;;;3.07;1.40;;;;;;;8.60;100.00;96713.13;5065172;28;20215;-73
2022/09/20 05:47:31;;;;;;;2.33;1.47;;;;;;;8.66;100.00;96716.84;5049508;28;20209;-72
2022/09/20 05:50:14;;;;;;;2.97;1.50;;;;;;;8.67;100.00;96710.44;5051742;28;20229;-72
2022/09/20 05:52:53;;;;;;;2.50;1.40;;;;;;;8.68;100.00;96726.34;5050350;28;20226;-72
2022/09/20 05:55:43;;;;;;;1.77;1.47;;;;;;;8.70;100.00;96716.22;5055024;28;20198;-71
2022/09/20 05:58:28;;;;;;;1.50;1.30;;;;;;;8.72;100.00;96719.53;5055785;28;20225;-71
2022/09/20 06:00:59;;;;;;;3.97;1.50;;;;;;;8.70;100.00;96720.78;5053698;28;20244;-72
2022/09/20 06:03:36;;;;;;;2.10;1.47;;;;;;;8.64;100.00;96724.31;5051218;28;20195;-72
2022/09/20 06:06:13;;;;;;;2.07;1.80;;;;;;;8.57;100.00;96727.00;5060075;28;20209;-71
2022/09/20 06:09:11;;;;;;;3.33;1.70;;;;;;;8.60;100.00;96725.75;5061837;28;20201;-72
2022/09/20 06:11:51;;;;;;;1.87;1.60;;;;;;;8.57;100.00;96729.69;5043260;28;20289;-72
2022/09/20 06:14:30;;;;;;;2.40;1.53;;;;;;;8.56;100.00;96727.22;5053361;28;20293;-72
2022/09/20 06:17:08;;;;;;;2.57;1.70;;;;;;;8.58;100.00;96733.22;5052356;28;20212;-73
2022/09/20 06:19:41;;;;;;;1.80;1.57;;;;;;;8.56;100.00;96733.44;5049990;28;20205;-71
2022/09/20 06:22:17;;;;;;;2.70;1.53;;;;;;;8.58;100.00;96738.59;5056807;28;20237;-71
2022/09/20 06:24:50;;;;;;;3.33;1.50;;;;;;;8.60;100.00;96731.13;5048683;28;20202;-71
2022/09/20 06:27:23;;;;;;;4.63;1.50;;;;;;;8.62;100.00;96734.44;5051165;28;20201;-73
2022/09/20 06:29:57;;;;;;;2.87;1.30;;;;;;;8.62;100.00;96732.59;5047800;28;20210;-72
2022/09/20 06:32:26;;;;;;;1.43;1.33;;;;;;;8.65;100.00;96734.88;5061868;28;20216;-73
2022/09/20 06:34:54;;;;;;;2.17;1.40;;;;;;;8.66;100.00;96746.47;5054232;28;20206;-72
2022/09/20 06:43:19;;;;;;;3.17;1.57;;;;;;;8.69;100.00;96741.47;5056839;28;20213;-72
2022/09/20 06:45:47;;;;;;;2.50;1.70;;;;;;;8.69;100.00;96743.34;5049800;28;20252;-72
2022/09/20 06:48:14;;;;;;;1.90;1.40;;;;;;;8.65;100.00;96744.81;5056443;28;20209;-72
2022/09/20 06:50:44;;;;;;;3.53;1.57;;;;;;;8.53;100.00;96747.28;5063820;28;20228;-73
2022/09/20 06:53:16;;;;;;;1.60;1.50;;;;;;;8.42;100.00;96745.22;5058694;28;20226;-72
2022/09/20 06:55:46;;;;;;;6.67;1.70;;;;;;;8.38;100.00;96741.28;5058136;28;20209;-72
2022/09/20 06:58:14;;;;;;;2.17;1.67;;;;;;;8.42;100.00;96742.53;5056984;28;20217;-72
2022/09/20 07:00:41;;;;;;;5.40;1.90;;;;;;;8.45;100.00;96738.59;5055388;28;20210;-72
2022/09/20 07:03:08;;;;;;;2.07;1.53;;;;;;;8.42;100.00;96739.03;5050461;28;20202;-71
2022/09/20 07:05:36;;;;;;;1.90;1.70;;;;;;;8.37;100.00;96741.50;5057522;28;20210;-72
2022/09/20 07:08:03;;;;;;;2.00;1.80;;;;;;;8.32;100.00;96742.97;5049724;28;20237;-73
2022/09/20 07:10:30;;;;;;;2.03;1.63;;;;;;;8.31;100.00;96735.91;5063721;28;20213;-72
2022/09/20 07:13:01;;;;;;;4.20;2.07;;;;;;;8.28;100.00;96738.16;5048531;28;20229;-72
2022/09/20 07:15:31;;;;;;;6.23;1.93;;;;;;;8.34;100.00;96748.09;5053128;28;20225;-72
2022/09/20 07:17:58;;;;;;;4.27;1.87;;;;;;;8.44;100.00;96747.69;5049356;28;20213;-72
2022/09/20 07:20:25;;;;;;;2.23;1.87;;;;;;;8.51;100.00;96737.75;5052767;28;20208;-71
2022/09/20 07:22:53;;;;;;;3.27;1.90;;;;;;;8.55;100.00;96739.00;5060763;28;20236;-72
2022/09/20 07:25:20;;;;;;;8.40;2.50;;;;;;;8.50;100.00;96738.81;5052591;28;20213;-74
2022/09/20 07:27:50;;;;;;;3.90;1.70;;;;;;;8.48;100.00;96735.50;5062872;28;20267;-74
2022/09/20 07:30:20;;;;;;;2.00;1.80;;;;;;;8.48;100.00;96738.19;5059350;28;20216;-73
2022/09/20 07:32:47;;;;;;;3.40;1.70;;;;;;;8.52;100.00;96742.94;5060887;28;20218;-73
2022/09/20 07:35:14;;;;;;;2.40;1.60;;;;;;;8.53;100.00;96739.22;5050893;28;20224;-72
2022/09/20 07:37:41;;;;;;;1.87;1.40;;;;;;;8.55;100.00;96747.09;5054123;28;20292;-72
2022/09/20 07:40:11;;;;;;;2.40;2.00;;;;;;;8.58;100.00;96744.00;5056864;28;20208;-71
2022/09/20 07:42:38;;;;;;;2.57;1.80;;;;;;;8.60;100.00;96747.28;5056352;28;20209;-72
2022/09/20 07:45:07;;;;;;;2.10;1.90;;;;;;;8.65;100.00;96742.13;5052559;28;20199;-72
2022/09/20 07:47:35;;;;;;;4.70;1.80;;;;;;;8.71;100.00;96746.66;5050119;28;20240;-71
2022/09/20 07:50:03;;;;;;;2.33;1.97;;;;;;;8.68;100.00;96744.38;5055533;28;20202;-71
2022/09/20 07:52:30;;;;;;;3.00;1.63;;;;;;;8.70;100.00;96750.38;5056156;28;20237;-72
2022/09/20 07:54:57;;;;;;;2.90;1.70;;;;;;;8.77;100.00;96751.19;5051448;28;20276;-72
2022/09/20 07:57:24;;;;;;;3.93;1.80;;;;;;;8.88;100.00;96753.25;5051928;28;20233;-72
2022/09/20 07:59:51;;;;;;;3.40;1.80;;;;;;;8.94;100.00;96754.28;5055853;28;20206;-72
2022/09/20 08:02:18;;;;;;;3.00;2.03;;;;;;;9.02;100.00;96756.75;5054404;28;20330;-72
2022/09/20 08:04:48;;;;;;;2.40;1.70;;;;;;;9.10;100.00;96754.66;5061573;28;20205;-72
2022/09/20 08:07:15;;;;;;;1.67;1.57;;;;;;;9.13;100.00;96758.81;5057589;28;20278;-71
2022/09/20 08:09:42;;;;;;;2.43;1.50;;;;;;;9.27;100.00;96762.31;5051811;28;20206;-72
2022/09/20 08:12:09;;;;;;;1.87;1.70;;;;;;;9.50;100.00;96762.63;5055615;28;20221;-72
2022/09/20 08:14:36;;;;;;;3.27;2.80;;;;;;;9.77;100.00;96760.66;5060201;28;20439;-72
2022/09/20 08:17:03;;;;;;;7.87;4.17;;;;;;;9.98;100.00;96763.03;5057147;28;20210;-72
2022/09/20 08:19:30;;;;;;;5.57;4.37;;;;;;;10.36;100.00;96770.28;5053598;28;20221;-72
2022/09/20 08:21:59;;;;;;;6.00;4.50;;;;;;;10.70;100.00;96760.88;5054335;28;20244;-72
2022/09/20 08:24:27;;;;;;;8.87;5.43;;;;;;;10.95;100.00;96761.69;5052778;28;20199;-74
2022/09/20 08:26:54;;;;;;;6.17;4.53;;;;;;;11.21;100.00;96757.91;5051816;28;20206;-73
2022/09/20 08:29:20;;;;;;;5.27;3.53;;;;;;;11.59;100.00;96760.38;5059004;28;20224;-72
2022/09/20 08:31:47;;;;;;;5.97;3.70;;;;;;;11.82;100.00;96755.13;5047778;28;22189;-72
2022/09/20 08:34:16;;;;;;;5.30;3.30;;;;;;;12.12;100.00;96747.84;5052403;28;20201;-73
2022/09/20 08:36:46;;;;;;;4.40;3.40;;;;;;;12.22;100.00;96750.00;5055845;28;20229;-73
2022/09/20 08:39:15;;;;;;;2.47;2.10;;;;;;;12.30;100.00;96751.53;5062569;28;20228;-71
2022/09/20 08:41:46;;;;;;;1.90;1.60;;;;;;;12.61;100.00;96751.25;5058328;28;20205;-72
2022/09/20 08:44:18;;;;;;;3.23;1.60;;;;;;;12.96;100.00;96753.16;5057983;28;20214;-74
2022/09/20 08:46:50;;;;;;;1.67;1.27;;;;;;;13.17;100.00;96744.50;5056751;28;20283;-73
2022/09/20 08:49:25;;;;;;;1.80;1.50;;;;;;;13.47;98.89;96742.44;5049333;28;20206;-72
2022/09/20 08:51:56;;;;;;;2.60;1.80;;;;;;;13.76;97.20;96740.59;5062080;28;20208;-72
2022/09/20 08:54:26;;;;;;;1.50;1.40;;;;;;;13.94;93.66;96747.75;5050613;28;20210;-72
2022/09/20 08:56:54;;;;;;;3.87;2.00;;;;;;;14.02;93.67;96739.22;5048869;28;20238;-74
2022/09/20 08:59:24;;;;;;;3.03;1.80;;;;;;;14.04;91.15;96737.06;5054472;28;20252;-75
2022/09/20 09:01:53;;;;;;;3.70;1.80;;;;;;;14.15;91.65;96732.66;5055982;28;20214;-73
2022/09/20 09:04:23;;;;;;;2.10;1.57;;;;;;;14.39;90.09;96718.75;5061769;28;20205;-71
2022/09/20 09:06:52;;;;;;;1.80;1.50;;;;;;;14.61;89.41;96720.75;5056210;28;20205;-73
2022/09/20 09:09:22;;;;;;;2.47;1.60;;;;;;;14.88;86.78;96726.34;5050549;28;20209;-73
2022/09/20 09:11:52;;;;;;;2.13;1.70;;;;;;;14.80;84.23;96713.97;5047973;28;20210;-73
2022/09/20 09:17:12;;;;;;;3.47;1.80;;;;;;;15.20;83.58;96712.94;5054903;28;20208;-72
2022/09/20 09:19:48;;;;;;;3.43;1.50;;;;;;;15.08;82.48;96716.59;5062195;28;20205;-72
2022/09/20 09:22:21;;;;;;;6.80;1.73;;;;;;;14.95;83.16;96711.50;5058696;28;20245;-73
2022/09/20 09:25:32;;;;;;;4.70;1.93;;;;;;;14.86;84.84;96709.44;5048371;28;20206;-72
2022/09/20 09:28:04;;;;;;;4.90;1.70;;;;;;;15.14;83.01;96709.34;5033022;28;20221;-72
2022/09/20 09:30:34;;;;;;;2.10;1.90;;;;;;;15.38;82.81;96709.94;5048898;28;20205;-73
2022/09/20 09:33:26;;;;;;;2.47;1.67;;;;;;;15.49;82.92;96703.53;5059861;28;20289;-72
2022/09/20 09:35:59;;;;;;;2.90;1.60;;;;;;;15.64;83.19;96698.34;5048545;28;20221;-71
2022/09/20 09:38:28;;;;;;;2.53;1.80;;;;;;;15.71;83.67;96693.53;5065172;28;20254;-72
2022/09/20 09:40:58;;;;;;;5.60;2.13;;;;;;;15.83;82.67;96691.47;5054109;28;20264;-72
2022/09/20 09:43:28;;;;;;;2.80;1.90;;;;;;;15.84;80.99;96695.00;5053983;28;20221;-73
2022/09/20 09:46:05;;;;;;;2.47;1.60;;;;;;;15.88;79.12;96693.44;5053746;28;20209;-72
2022/09/20 09:48:32;;;;;;;2.97;1.87;;;;;;;15.87;80.76;96687.16;5059175;28;20208;-73
2022/09/20 09:51:11;;;;;;;3.23;1.73;;;;;;;16.13;79.83;96680.09;5048749;28;20223;-72
2022/09/20 09:53:39;;;;;;;4.70;1.90;;;;;;;16.25;77.58;96679.91;5061117;28;20222;-72
2022/09/20 09:56:26;;;;;;;2.67;2.03;;;;;;;16.32;80.15;96677.00;5049767;28;20236;-73
2022/09/20 09:59:19;;;;;;;2.83;1.63;;;;;;;16.40;78.67;96671.91;5052576;28;20209;-72
2022/09/20 10:01:54;;;;;;;2.40;1.63;;;;;;;16.55;79.68;96672.03;5051255;28;20266;-73
2022/09/20 10:04:28;;;;;;;4.83;1.90;;;;;;;16.77;76.85;96671.94;5063267;28;20194;-73
2022/09/20 10:07:06;;;;;;;6.17;2.03;;;;;;;17.02;76.98;96671.28;5050652;28;20299;-72
2022/09/20 10:09:48;;;;;;;2.73;1.90;;;;;;;16.95;76.20;96659.78;5052144;28;20212;-73
2022/09/20 10:12:28;;;;;;;1.87;1.60;;;;;;;16.93;74.64;96664.69;5061931;28;20225;-72
2022/09/20 10:15:13;;;;;;;6.00;1.60;;;;;;;16.98;74.91;96659.28;5050302;28;20283;-75
2022/09/20 10:17:51;;;;;;;2.33;1.67;;;;;;;16.98;75.99;96656.56;5051639;28;20206;-72
2022/09/20 10:20:42;;;;;;;5.10;1.73;;;;;;;17.00;72.33;96651.66;5063355;28;20201;-72
2022/09/20 10:23:26;;;;;;;2.77;1.70;;;;;;;17.07;74.15;96644.06;5055715;28;20232;-72
2022/09/20 10:26:00;;;;;;;3.17;1.57;;;;;;;17.02;72.42;96654.94;5063257;28;20213;-72
2022/09/20 10:28:47;;;;;;;5.93;2.07;;;;;;;17.03;72.27;96651.13;5057140;28;20202;-73
2022/09/20 10:31:31;;;;;;;5.33;2.10;;;;;;;16.77;72.90;96644.66;5034381;28;20269;-74
2022/09/20 10:34:24;;;;;;;3.77;1.70;;;;;;;17.02;73.96;96652.19;5055557;28;20234;-73
2022/09/20 10:36:54;;;;;;;3.10;1.70;;;;;;;17.15;75.12;96648.19;5028507;28;20297;-74
2022/09/20 10:39:28;;;;;;;2.40;1.80;;;;;;;17.14;75.63;96652.81;5059535;28;20211;-74
2022/09/20 10:44:56;;;;;;;3.90;1.80;;;;;;;17.07;73.08;96649.53;5038837;28;20232;-73
2022/09/20 10:47:32;;;;;;;3.80;2.10;;;;;;;17.36;75.31;96644.47;5053683;28;20198;-73
2022/09/20 10:50:10;;;;;;;3.57;2.00;;;;;;;17.59;72.86;96648.69;5056018;28;20266;-73
2022/09/20 10:52:57;;;;;;;2.80;1.80;;;;;;;17.65;71.75;96648.47;5056790;28;20221;-73
2022/09/20 10:55:34;;;;;;;3.00;1.83;;;;;;;17.60;70.12;96633.94;5064855;28;20206;-74
2022/09/20 10:58:42;;;;;;;4.33;1.87;;;;;;;17.60;70.18;96629.31;5050921;28;20253;-73
2022/09/20 11:01:18;;;;;;;3.63;1.80;;;;;;;17.77;72.32;96634.56;5053579;28;20213;-73
2022/09/20 11:04:03;;;;;;;2.43;1.60;;;;;;;17.91;70.33;96630.22;5062009;28;21792;-73
2022/09/20 11:06:43;;;;;;;3.40;1.40;;;;;;;17.75;67.52;96636.75;5052437;28;20218;-74
2022/09/20 11:09:16;;;;;;;3.83;1.70;;;;;;;17.71;68.55;96630.16;5060035;28;21772;-73
2022/09/20 11:11:48;;;;;;;5.00;2.00;;;;;;;17.75;70.18;96625.81;5065019;28;20204;-73
2022/09/20 11:14:20;;;;;;;1.80;1.53;;;;;;;17.70;67.77;96629.34;5064194;28;20245;-74
2022/09/20 11:16:53;;;;;;;6.13;2.07;;;;;;;17.84;67.30;96628.84;5063336;28;20267;-72
2022/09/20 11:19:31;;;;;;;5.20;1.70;;;;;;;17.87;66.79;96620.91;5050550;28;20221;-73
2022/09/20 11:22:07;;;;;;;2.93;1.63;;;;;;;18.13;66.79;96624.53;5055904;28;20259;-73
2022/09/20 11:24:38;;;;;;;3.87;1.80;;;;;;;18.18;65.44;96623.72;5050788;28;20290;-74
2022/09/20 11:27:12;;;;;;;3.37;1.93;;;;;;;18.26;64.90;96612.25;5058937;28;20264;-73
2022/09/20 11:29:45;;;;;;;2.27;1.47;;;;;;;18.34;65.36;96611.72;5063478;28;20206;-74
2022/09/20 11:32:19;;;;;;;2.33;1.37;;;;;;;18.18;64.54;96607.31;5055138;28;20301;-73
2022/09/20 11:34:54;;;;;;;2.47;1.53;;;;;;;18.04;63.90;96604.28;5054182;28;20226;-74
2022/09/20 11:37:27;;;;;;;3.80;1.60;;;;;;;18.32;64.83;96597.47;5055724;28;20221;-72
2022/09/20 11:39:55;;;;;;;5.73;1.80;;;;;;;18.58;63.12;96598.31;5054289;28;20271;-74
2022/09/20 11:42:26;;;;;;;2.83;1.40;;;;;;;18.73;64.04;96601.88;5056312;28;20210;-74
2022/09/20 11:44:54;;;;;;;3.73;1.60;;;;;;;18.77;62.78;96604.88;5056014;28;20212;-74
2022/09/20 11:47:25;;;;;;;2.73;1.40;;;;;;;18.79;62.92;96603.50;5053999;28;20209;-74
2022/09/20 11:50:16;;;;;;;3.33;1.30;;;;;;;18.93;60.17;96592.81;5057481;28;20214;-73
2022/09/20 11:53:04;;;;;;;1.93;1.30;;;;;;;18.82;61.00;96597.47;5053275;28;20244;-73
2022/09/20 11:55:42;;;;;;;2.27;1.30;;;;;;;18.90;59.73;96605.13;5055301;28;20207;-73
2022/09/20 11:58:14;;;;;;;4.00;1.50;;;;;;;18.77;62.20;96599.41;5058732;28;20219;-73
2022/09/20 12:00:45;;;;;;;2.00;1.37;;;;;;;18.81;61.91;96593.09;5051238;28;20202;-75
2022/09/20 12:03:25;;;;;;;3.47;1.40;;;;;;;18.70;60.92;96588.75;5051083;28;20203;-73
2022/09/20 12:06:00;;;;;;;2.00;1.20;;;;;;;18.74;60.24;96584.34;5068405;28;20237;-74
2022/09/20 12:08:31;;;;;;;2.63;1.20;;;;;;;18.81;58.39;96590.34;5055696;28;20212;-73
2022/09/20 12:11:03;;;;;;;1.47;1.20;;;;;;;18.65;59.22;96585.19;5054569;28;20274;-73
2022/09/20 12:13:31;;;;;;;3.70;1.20;;;;;;;18.64;58.99;96584.38;5049976;28;20228;-73
2022/09/20 12:16:05;;;;;;;1.83;1.17;;;;;;;18.50;59.26;96586.00;5052683;28;20279;-74
2022/09/20 12:18:46;;;;;;;1.53;1.33;;;;;;;18.74;60.27;96586.25;5053372;28;20233;-74
2022/09/20 12:21:17;;;;;;;2.63;1.53;;;;;;;18.99;59.10;96572.53;5049142;28;20206;-74
2022/09/20 12:24:01;;;;;;;2.03;1.17;;;;;;;18.93;57.93;96570.91;5056031;28;20236;-74
2022/09/20 12:26:40;;;;;;;4.17;1.20;;;;;;;18.88;58.05;96558.06;5056519;28;20213;-73
2022/09/20 12:29:53;;;;;;;3.00;1.30;;;;;;;19.09;59.60;96558.00;5055870;28;20259;-73
2022/09/20 12:32:44;;;;;;;4.63;1.40;;;;;;;19.11;57.64;96555.81;5053388;28;20222;-73